KHUM

Houma-Terrebonne Airport

Houma, Louisiana, USA
METAR KHUM 250035Z AUTO 00000KT 10SM CLR 23/22 A3002 RMK AO2 LTG DSNT NE AND S T02330221
Observed Flight Rules
May-25 @ 00:35 UTC (17 minutes ago) Visual Flight Rules
Visibility Clouds
10 miles
  • Clear skies
Temperatures Readings
Current 23°C / 73°F
Dewpoint 22°C / 72°F
Humidity 94%
Altimeter 30.02" Hg
Pressure 1017 hPa
Elevation 3
METAR KHUM 250035Z AUTO 00000KT 10SM CLR 23/22 A3002 RMK AO2 LTG DSNT NE AND S T02330221
Observed Flight Rules
May-25 @ 00:35 UTC
(17 minutes ago)
VFR
Clouds
  • Clear skies
Temperature Dewpoint
23°C / 73°F 22°C / 72°F
Humidity Altimeter Pressure
94% 30.02" Hg 1017 hPa